createdAt,value
2022-09-04T00:00:58.061Z,96.25
2022-09-04T00:01:57.964Z,96.35
2022-09-04T00:02:57.932Z,97.06
2022-09-04T00:03:58.114Z,97.06
2022-09-04T00:04:58.091Z,96.96
2022-09-04T00:05:57.882Z,96.76
2022-09-04T00:06:57.895Z,96.45
2022-09-04T00:07:57.904Z,96.45
2022-09-04T00:08:57.886Z,96.66
2022-09-04T00:09:57.840Z,96.66
2022-09-04T00:10:57.817Z,97.06
2022-09-04T00:11:57.861Z,97.52
2022-09-04T00:12:57.797Z,97.62
2022-09-04T00:13:57.784Z,97.82
2022-09-04T00:14:57.811Z,97.88
2022-09-04T00:15:57.791Z,97.57
2022-09-04T00:16:57.795Z,97.16
2022-09-04T00:17:57.723Z,96.96
2022-09-04T00:18:57.715Z,96.55
2022-09-04T00:19:57.703Z,96.35
2022-09-04T00:20:57.714Z,96.15
2022-09-04T00:21:57.675Z,95.84
2022-09-04T00:22:57.663Z,95.94
2022-09-04T00:23:57.650Z,95.74
2022-09-04T00:24:57.641Z,95.74
2022-09-04T00:25:57.644Z,95.94
2022-09-04T00:26:57.615Z,96.30
2022-09-04T00:27:57.600Z,96.70
2022-09-04T00:28:57.606Z,96.60
2022-09-04T00:29:57.570Z,96.39
2022-09-04T00:30:57.602Z,96.50
2022-09-04T00:31:57.541Z,96.55
2022-09-04T00:32:57.551Z,97.16
2022-09-04T00:33:57.538Z,97.47
2022-09-04T00:34:57.492Z,97.37
2022-09-04T00:35:57.475Z,97.47
2022-09-04T00:36:57.471Z,97.67
2022-09-04T00:37:57.487Z,97.37
2022-09-04T00:38:57.442Z,97.37
2022-09-04T00:39:57.472Z,97.37
2022-09-04T00:40:57.445Z,97.37
2022-09-04T00:41:57.403Z,97.98
2022-09-04T00:42:57.424Z,97.88
2022-09-04T00:43:57.386Z,97.88
2022-09-04T00:44:57.416Z,97.67
2022-09-04T00:45:57.375Z,97.67
2022-09-04T00:46:57.342Z,97.88
2022-09-04T00:47:57.352Z,97.78
2022-09-04T00:48:57.311Z,97.78
2022-09-04T00:49:57.315Z,97.67
2022-09-04T00:50:57.312Z,97.57
2022-09-04T00:51:57.271Z,97.67
2022-09-04T00:52:57.262Z,97.67
2022-09-04T00:53:57.227Z,97.67
2022-09-04T00:54:57.253Z,97.78
2022-09-04T00:55:57.210Z,97.57
2022-09-04T00:56:57.215Z,97.37
2022-09-04T00:57:57.192Z,97.57
2022-09-04T00:58:57.180Z,97.78
2022-09-04T00:59:57.190Z,97.47
2022-09-04T01:00:57.287Z,97.37
2022-09-04T01:01:57.276Z,97.37
2022-09-04T01:02:57.116Z,97.37
2022-09-04T01:03:57.562Z,97.27
2022-09-04T01:04:57.109Z,97.21
2022-09-04T01:05:57.077Z,97.21
2022-09-04T01:06:57.069Z,97.00
2022-09-04T01:07:57.098Z,97.62
2022-09-04T01:08:57.037Z,98.13
2022-09-04T01:09:57.042Z,97.92
2022-09-04T01:10:57.041Z,97.47
2022-09-04T01:11:57.013Z,97.82
2022-09-04T01:12:56.996Z,98.13
2022-09-04T01:13:56.983Z,97.78
2022-09-04T01:14:56.967Z,97.57
2022-09-04T01:15:56.976Z,97.57
2022-09-04T01:16:57.002Z,97.41
2022-09-04T01:17:56.945Z,97.47
2022-09-04T01:18:56.934Z,97.31
2022-09-04T01:19:56.915Z,97.41
2022-09-04T01:20:56.913Z,97.41
2022-09-04T01:21:56.866Z,97.72
2022-09-04T01:22:56.860Z,97.72
2022-09-04T01:23:56.844Z,97.82
2022-09-04T01:24:56.829Z,97.92
2022-09-04T01:25:56.844Z,97.92
2022-09-04T01:26:56.812Z,97.92
2022-09-04T01:27:56.792Z,97.82
2022-09-04T01:28:56.774Z,97.72
2022-09-04T01:29:56.769Z,97.82
2022-09-04T01:30:56.781Z,97.72
2022-09-04T01:31:56.826Z,97.62
2022-09-04T01:32:56.723Z,97.41
2022-09-04T01:33:56.734Z,97.11
2022-09-04T01:34:56.699Z,97.00
2022-09-04T01:35:56.681Z,97.11
2022-09-04T01:36:56.677Z,97.21
2022-09-04T01:37:56.680Z,97.72
2022-09-04T01:38:56.643Z,97.37
2022-09-04T01:39:56.731Z,97.06
2022-09-04T01:40:56.614Z,96.76
2022-09-04T01:41:56.603Z,96.55
2022-09-04T01:42:56.588Z,96.55
2022-09-04T01:43:56.577Z,96.80
2022-09-04T01:44:56.589Z,96.70
2022-09-04T01:45:56.626Z,96.91
2022-09-04T01:46:56.555Z,97.00
2022-09-04T01:47:56.527Z,97.72
2022-09-04T01:48:56.510Z,97.47
2022-09-04T01:49:56.496Z,96.86
2022-09-04T01:50:56.485Z,96.70
2022-09-04T01:51:56.492Z,96.91
2022-09-04T01:52:56.460Z,96.70
2022-09-04T01:53:56.433Z,96.50
2022-09-04T01:54:56.431Z,96.91
2022-09-04T01:55:56.436Z,97.00
2022-09-04T01:56:56.400Z,97.52
2022-09-04T01:57:56.379Z,97.52
2022-09-04T01:58:56.370Z,97.31
2022-09-04T01:59:56.365Z,96.91
2022-09-04T02:00:57.747Z,96.80
2022-09-04T02:01:56.420Z,96.91
2022-09-04T02:02:56.320Z,97.21
2022-09-04T02:03:56.302Z,97.11
2022-09-04T02:04:56.294Z,97.11
2022-09-04T02:05:56.310Z,96.91
2022-09-04T02:06:56.298Z,96.60
2022-09-04T02:07:56.254Z,96.30
2022-09-04T02:08:56.261Z,96.09
2022-09-04T02:09:56.227Z,96.09
2022-09-04T02:10:56.209Z,96.09
2022-09-04T02:11:57.126Z,96.30
2022-09-04T02:12:56.185Z,97.31
2022-09-04T02:13:56.173Z,97.21
2022-09-04T02:14:56.162Z,97.11
2022-09-04T02:15:56.175Z,96.86
2022-09-04T02:16:56.137Z,96.96
2022-09-04T02:17:56.144Z,96.96
2022-09-04T02:18:56.097Z,96.66
2022-09-04T02:19:56.160Z,96.45
2022-09-04T02:20:56.098Z,95.84
2022-09-04T02:21:56.077Z,95.64
2022-09-04T02:22:56.071Z,95.74
2022-09-04T02:23:56.042Z,96.25
2022-09-04T02:24:56.051Z,97.21
2022-09-04T02:25:56.006Z,97.27
2022-09-04T02:26:56.023Z,96.96
2022-09-04T02:27:56.009Z,96.66
2022-09-04T02:28:55.988Z,96.45
2022-09-04T02:29:55.961Z,96.00
2022-09-04T02:30:55.943Z,95.69
2022-09-04T02:31:56.007Z,95.49
2022-09-04T02:32:55.918Z,95.69
2022-09-04T02:33:55.923Z,96.25
2022-09-04T02:34:55.893Z,96.45
2022-09-04T02:35:55.875Z,96.45
2022-09-04T02:36:55.879Z,96.45
2022-09-04T02:37:55.871Z,96.45
2022-09-04T02:38:55.834Z,96.45
2022-09-04T02:39:55.930Z,96.45
2022-09-04T02:40:55.810Z,96.55
2022-09-04T02:41:55.794Z,96.55
2022-09-04T02:42:55.808Z,96.76
2022-09-04T02:43:55.762Z,96.66
2022-09-04T02:44:55.750Z,96.76
2022-09-04T02:45:55.736Z,96.76
2022-09-04T02:46:55.902Z,96.55
2022-09-04T02:47:55.740Z,96.35
2022-09-04T02:48:55.696Z,96.55
2022-09-04T02:49:55.702Z,96.55
2022-09-04T02:50:55.673Z,96.35
2022-09-04T02:51:55.676Z,96.45
2022-09-04T02:52:56.103Z,96.55
2022-09-04T02:53:55.655Z,96.55
2022-09-04T02:54:55.638Z,96.45
2022-09-04T02:55:55.610Z,96.35
2022-09-04T02:56:55.616Z,96.15
2022-09-04T02:57:55.583Z,95.94
2022-09-04T02:58:55.555Z,96.04
2022-09-04T02:59:55.566Z,95.94
2022-09-04T03:00:55.613Z,95.98
2022-09-04T03:01:55.563Z,96.60
2022-09-04T03:02:55.521Z,96.50
2022-09-04T03:03:55.502Z,96.39
2022-09-04T03:04:55.497Z,96.50
2022-09-04T03:05:55.499Z,96.39
2022-09-04T03:06:55.470Z,96.19
2022-09-04T03:07:55.447Z,96.09
2022-09-04T03:08:55.427Z,96.19
2022-09-04T03:09:55.444Z,96.30
2022-09-04T03:10:55.427Z,96.39
2022-09-04T03:11:55.414Z,96.80
2022-09-04T03:12:55.380Z,96.80
2022-09-04T03:13:55.364Z,97.00
2022-09-04T03:14:55.353Z,97.31
2022-09-04T03:15:55.427Z,97.52
2022-09-04T03:16:55.327Z,97.82
2022-09-04T03:17:55.341Z,97.72
2022-09-04T03:18:55.299Z,97.72
2022-09-04T03:19:55.310Z,97.62
2022-09-04T03:20:55.264Z,97.52
2022-09-04T03:21:55.273Z,97.31
2022-09-04T03:22:55.245Z,96.80
2022-09-04T03:23:55.238Z,96.39
2022-09-04T03:24:55.260Z,95.98
2022-09-04T03:25:55.218Z,95.89
2022-09-04T03:26:55.251Z,95.89
2022-09-04T03:27:55.188Z,95.93
2022-09-04T03:28:55.166Z,96.44
2022-09-04T03:29:55.159Z,96.54
2022-09-04T03:30:55.161Z,96.84
2022-09-04T03:31:55.260Z,97.05
2022-09-04T03:32:55.131Z,97.46
2022-09-04T03:33:55.101Z,97.87
2022-09-04T03:34:55.104Z,98.18
2022-09-04T03:35:55.068Z,97.87
2022-09-04T03:36:55.055Z,97.56
2022-09-04T03:37:55.064Z,97.46
2022-09-04T03:38:55.081Z,97.56
2022-09-04T03:39:55.089Z,97.66
2022-09-04T03:40:54.997Z,97.71
2022-09-04T03:41:54.991Z,97.56
2022-09-04T03:42:55.000Z,97.61
2022-09-04T03:43:55.011Z,97.71
2022-09-04T03:44:54.953Z,97.61
2022-09-04T03:45:54.937Z,97.71
2022-09-04T03:46:54.979Z,97.91
2022-09-04T03:47:54.912Z,97.81
2022-09-04T03:48:54.921Z,97.81
2022-09-04T03:49:54.889Z,97.81
2022-09-04T03:50:54.898Z,97.71
2022-09-04T03:51:54.858Z,97.71
2022-09-04T03:52:54.838Z,98.02
2022-09-04T03:53:54.856Z,98.52
2022-09-04T03:54:54.819Z,98.73
2022-09-04T03:55:54.803Z,98.79
2022-09-04T03:56:54.784Z,98.58
2022-09-04T03:57:54.774Z,98.38
2022-09-04T03:58:54.784Z,98.27
2022-09-04T03:59:54.759Z,97.92
2022-09-04T04:00:54.768Z,97.72
2022-09-04T04:01:54.744Z,97.41
2022-09-04T04:02:54.820Z,97.21
2022-09-04T04:03:54.719Z,97.00
2022-09-04T04:04:54.686Z,96.50
2022-09-04T04:05:54.701Z,96.09
2022-09-04T04:06:54.650Z,96.39
2022-09-04T04:07:54.643Z,96.70
2022-09-04T04:08:54.621Z,96.70
2022-09-04T04:09:54.614Z,96.70
2022-09-04T04:10:54.620Z,96.80
2022-09-04T04:11:54.594Z,96.80
2022-09-04T04:12:54.578Z,96.91
2022-09-04T04:13:54.557Z,96.80
2022-09-04T04:14:54.546Z,96.60
2022-09-04T04:15:54.647Z,96.60
2022-09-04T04:16:56.066Z,96.70
2022-09-04T04:17:54.509Z,96.80
2022-09-04T04:18:54.527Z,97.25
2022-09-04T04:19:54.482Z,97.46
2022-09-04T04:20:54.468Z,98.18
2022-09-04T04:21:54.570Z,98.18
2022-09-04T04:22:54.434Z,98.13
2022-09-04T04:23:54.426Z,97.92
2022-09-04T04:24:54.413Z,97.62
2022-09-04T04:25:54.397Z,97.21
2022-09-04T04:26:55.006Z,97.25
2022-09-04T04:27:54.401Z,97.16
2022-09-04T04:28:54.361Z,97.00
2022-09-04T04:29:54.368Z,97.05
2022-09-04T04:30:54.356Z,97.05
2022-09-04T04:31:54.308Z,97.00
2022-09-04T04:32:54.300Z,97.00
2022-09-04T04:33:54.292Z,97.00
2022-09-04T04:34:54.273Z,97.05
2022-09-04T04:35:54.287Z,97.25
2022-09-04T04:36:54.248Z,97.36
2022-09-04T04:37:54.241Z,97.25
2022-09-04T04:38:54.221Z,97.36
2022-09-04T04:39:54.245Z,97.36
2022-09-04T04:40:54.229Z,97.25
2022-09-04T04:41:54.175Z,97.25
2022-09-04T04:42:54.165Z,97.36
2022-09-04T04:43:54.161Z,97.36
2022-09-04T04:44:54.169Z,97.66
2022-09-04T04:45:54.176Z,97.87
2022-09-04T04:46:54.191Z,98.18
2022-09-04T04:47:54.137Z,98.33
2022-09-04T04:48:54.099Z,98.48
2022-09-04T04:49:54.168Z,98.74
2022-09-04T04:50:54.058Z,98.74
2022-09-04T04:51:54.080Z,98.74
2022-09-04T04:52:54.033Z,98.64
2022-09-04T04:53:54.029Z,98.43
2022-09-04T04:54:54.012Z,98.33
2022-09-04T04:55:53.996Z,98.33
2022-09-04T04:56:54.031Z,98.43
2022-09-04T04:57:53.979Z,98.43
2022-09-04T04:58:53.954Z,98.54
2022-09-04T04:59:53.964Z,98.33
2022-09-04T05:00:53.934Z,98.43
2022-09-04T05:01:54.006Z,98.43
2022-09-04T05:02:53.997Z,98.33
2022-09-04T05:03:53.919Z,98.33
2022-09-04T05:04:53.881Z,98.43
2022-09-04T05:05:53.862Z,98.64
2022-09-04T05:06:53.871Z,98.54
2022-09-04T05:07:53.833Z,98.43
2022-09-04T05:08:53.822Z,98.23
2022-09-04T05:09:53.858Z,98.18
2022-09-04T05:10:53.785Z,98.18
2022-09-04T05:11:53.785Z,98.28
2022-09-04T05:12:53.769Z,98.39
2022-09-04T05:13:53.799Z,98.39
2022-09-04T05:14:53.780Z,98.18
2022-09-04T05:16:08.518Z,98.18
2022-09-04T05:16:55.996Z,98.39
2022-09-04T05:17:53.706Z,98.28
2022-09-04T05:18:53.687Z,98.14
2022-09-04T05:19:53.683Z,97.83
2022-09-04T05:20:53.679Z,97.73
2022-09-04T05:21:53.651Z,97.53
2022-09-04T05:22:53.661Z,97.63
2022-09-04T05:23:53.620Z,97.93
2022-09-04T05:24:54.067Z,97.93
2022-09-04T05:25:53.604Z,97.53
2022-09-04T05:26:53.585Z,97.32
2022-09-04T05:27:53.571Z,97.22
2022-09-04T05:28:53.573Z,97.32
2022-09-04T05:29:53.539Z,97.32
2022-09-04T05:30:53.567Z,97.12
2022-09-04T05:31:53.519Z,97.22
2022-09-04T05:32:53.500Z,97.53
2022-09-04T05:33:53.525Z,97.58
2022-09-04T05:34:53.474Z,97.78
2022-09-04T05:35:53.942Z,97.69
2022-09-04T05:36:53.451Z,97.69
2022-09-04T05:37:53.453Z,97.69
2022-09-04T05:38:53.435Z,97.58
2022-09-04T05:39:53.457Z,97.28
2022-09-04T05:40:53.389Z,97.07
2022-09-04T05:41:53.396Z,97.38
2022-09-04T05:42:53.363Z,97.28
2022-09-04T05:43:53.374Z,97.28
2022-09-04T05:44:53.388Z,97.07
2022-09-04T05:45:53.355Z,96.67
2022-09-04T05:46:53.361Z,96.62
2022-09-04T05:47:53.303Z,96.31
2022-09-04T05:48:53.300Z,96.01
2022-09-04T05:49:53.281Z,95.61
2022-09-04T05:50:53.259Z,95.70
2022-09-04T05:51:53.249Z,96.22
2022-09-04T05:52:53.223Z,96.11
2022-09-04T05:53:53.253Z,96.01
2022-09-04T05:54:53.205Z,96.62
2022-09-04T05:55:53.196Z,96.62
2022-09-04T05:56:53.180Z,96.52
2022-09-04T05:57:53.163Z,95.91
2022-09-04T05:58:53.169Z,95.91
2022-09-04T05:59:53.136Z,95.61
2022-09-04T06:00:53.126Z,95.40
2022-09-04T06:01:53.128Z,95.15
2022-09-04T06:02:53.192Z,95.66
2022-09-04T06:03:53.149Z,95.86
2022-09-04T06:04:53.068Z,96.37
2022-09-04T06:05:53.053Z,96.37
2022-09-04T06:06:53.057Z,96.37
2022-09-04T06:07:53.022Z,95.97
2022-09-04T06:08:53.050Z,95.25
2022-09-04T06:09:52.999Z,94.85
2022-09-04T06:10:53.014Z,94.95
2022-09-04T06:11:52.976Z,95.25
2022-09-04T06:12:52.965Z,95.36
2022-09-04T06:13:52.950Z,94.70
2022-09-04T06:14:52.982Z,93.84
2022-09-04T06:15:52.945Z,92.89
2022-09-04T06:16:52.941Z,92.03
2022-09-04T06:17:52.901Z,90.93
2022-09-04T06:18:52.880Z,89.37
2022-09-04T06:19:52.869Z,88.76
2022-09-04T06:20:52.856Z,88.20
2022-09-04T06:21:52.870Z,88.70
2022-09-04T06:22:55.721Z,89.04
2022-09-04T06:23:52.815Z,89.39
2022-09-04T06:24:52.798Z,89.70
2022-09-04T06:25:52.812Z,89.80
2022-09-04T06:26:52.776Z,90.20
2022-09-04T06:27:52.754Z,90.71
2022-09-04T06:28:52.750Z,91.67
2022-09-04T06:29:52.753Z,92.28
2022-09-04T06:30:52.765Z,92.28
2022-09-04T06:31:52.707Z,92.68
2022-09-04T06:32:52.690Z,92.99
2022-09-04T06:33:52.680Z,93.19
2022-09-04T06:34:52.695Z,93.09
2022-09-04T06:35:52.680Z,92.18
2022-09-04T06:36:52.646Z,91.97
2022-09-04T06:37:52.630Z,90.86
2022-09-04T06:38:52.621Z,91.26
2022-09-04T06:39:52.648Z,91.47
2022-09-04T06:40:52.595Z,92.07
2022-09-04T06:41:52.573Z,92.28
2022-09-04T06:42:52.567Z,92.18
2022-09-04T06:43:54.366Z,91.89
2022-09-04T06:44:52.537Z,89.12
2022-09-04T06:45:52.516Z,87.82
2022-09-04T06:46:52.578Z,86.91
2022-09-04T06:47:52.526Z,86.51
2022-09-04T06:48:52.507Z,85.39
2022-09-04T06:49:52.479Z,85.46
2022-09-04T06:50:52.452Z,84.77
2022-09-04T06:51:52.465Z,82.55
2022-09-04T06:52:52.433Z,82.55
2022-09-04T06:53:52.423Z,82.89
2022-09-04T06:54:52.408Z,83.60
2022-09-04T06:55:52.384Z,84.11
2022-09-04T06:56:52.389Z,84.11
2022-09-04T06:57:52.348Z,83.56
2022-09-04T06:58:52.368Z,82.27
2022-09-04T06:59:52.325Z,80.84
2022-09-04T07:00:52.316Z,79.53
2022-09-04T07:01:52.506Z,78.63
2022-09-04T07:02:52.400Z,78.86
2022-09-04T07:03:52.277Z,79.10
2022-09-04T07:04:52.304Z,79.81
2022-09-04T07:05:52.248Z,78.46
2022-09-04T07:06:52.281Z,78.16
2022-09-04T07:07:52.262Z,77.75
2022-09-04T07:08:52.213Z,77.08
2022-09-04T07:09:52.252Z,76.50
2022-09-04T07:10:52.188Z,76.12
2022-09-04T07:11:52.197Z,73.58
2022-09-04T07:12:52.173Z,72.27
2022-09-04T07:13:52.140Z,70.56
2022-09-04T07:14:52.128Z,72.47
2022-09-04T07:15:52.178Z,72.91
2022-09-04T07:16:52.124Z,74.32
2022-09-04T07:17:52.109Z,74.79
2022-09-04T07:18:52.100Z,75.70
2022-09-04T07:19:52.058Z,77.14
2022-09-04T07:20:52.074Z,77.48
2022-09-04T07:21:52.035Z,76.51
2022-09-04T07:22:52.020Z,78.22
2022-09-04T07:23:52.012Z,77.45
2022-09-04T07:24:51.992Z,78.86
2022-09-04T07:25:52.009Z,80.58
2022-09-04T07:26:51.963Z,79.16
2022-09-04T07:27:51.977Z,76.48
2022-09-04T07:28:51.958Z,77.49
2022-09-04T07:29:51.927Z,78.70
2022-09-04T07:30:51.923Z,81.32
2022-09-04T07:31:52.004Z,82.03
2022-09-04T07:32:51.885Z,82.78
2022-09-04T07:33:51.890Z,82.78
2022-09-04T07:34:51.856Z,82.98
2022-09-04T07:35:51.836Z,82.17
2022-09-04T07:36:51.866Z,82.37
2022-09-04T07:37:51.812Z,82.84
2022-09-04T07:38:52.059Z,83.28
2022-09-04T07:39:51.868Z,79.34
2022-09-04T07:40:51.775Z,79.14
2022-09-04T07:41:51.753Z,78.23
2022-09-04T07:42:51.773Z,78.17
2022-09-04T07:43:54.867Z,78.77
2022-09-04T07:44:51.720Z,79.85
2022-09-04T07:45:51.832Z,80.85
2022-09-04T07:46:51.714Z,80.96
2022-09-04T07:47:51.698Z,81.16
2022-09-04T07:48:51.668Z,81.52
2022-09-04T07:49:51.677Z,82.33
2022-09-04T07:50:51.640Z,80.27
2022-09-04T07:51:51.628Z,78.76
2022-09-04T07:52:51.638Z,77.69
2022-09-04T07:53:51.599Z,76.68
2022-09-04T07:54:51.591Z,78.19
2022-09-04T07:55:51.580Z,78.36
2022-09-04T07:56:51.562Z,79.27
2022-09-04T07:57:51.560Z,80.98
2022-09-04T07:58:51.567Z,79.57
2022-09-04T07:59:51.516Z,79.67
2022-09-04T08:00:51.532Z,80.64
2022-09-04T08:01:51.516Z,81.24
2022-09-04T08:02:51.480Z,81.04
2022-09-04T08:03:54.379Z,81.55
2022-09-04T08:04:51.490Z,81.65
2022-09-04T08:05:51.441Z,82.71
2022-09-04T08:06:51.452Z,82.71
2022-09-04T08:07:51.413Z,82.01
2022-09-04T08:08:51.400Z,81.41
2022-09-04T08:09:51.377Z,83.28
2022-09-04T08:10:51.370Z,82.78
2022-09-04T08:11:51.398Z,81.17
2022-09-04T08:12:51.359Z,80.66
2022-09-04T08:13:51.358Z,81.53
2022-09-04T08:14:51.339Z,83.04
2022-09-04T08:15:51.392Z,82.64
2022-09-04T08:16:53.270Z,80.89
2022-09-04T08:17:51.311Z,79.68
2022-09-04T08:18:51.266Z,81.19
2022-09-04T08:19:51.261Z,81.39
2022-09-04T08:20:51.247Z,81.29
2022-09-04T08:21:51.245Z,78.98
2022-09-04T08:22:51.396Z,78.78
2022-09-04T08:23:51.193Z,79.48
2022-09-04T08:24:51.195Z,80.29
2022-09-04T08:25:51.174Z,80.99
2022-09-04T08:26:51.200Z,81.90
2022-09-04T08:27:51.148Z,79.68
2022-09-04T08:28:51.147Z,80.58
2022-09-04T08:29:51.124Z,82.06
2022-09-04T08:30:51.109Z,80.95
2022-09-04T08:31:51.138Z,81.26
2022-09-04T08:32:51.083Z,80.05
2022-09-04T08:33:51.072Z,79.85
2022-09-04T08:34:51.085Z,80.45
2022-09-04T08:35:51.062Z,80.95
2022-09-04T08:36:51.028Z,79.35
2022-09-04T08:37:51.017Z,80.11
2022-09-04T08:38:51.023Z,76.63
2022-09-04T08:39:51.101Z,75.32
2022-09-04T08:40:52.196Z,76.93
2022-09-04T08:41:50.963Z,78.14
2022-09-04T08:42:50.968Z,80.35
2022-09-04T08:43:50.933Z,81.26
2022-09-04T08:44:50.952Z,79.30
2022-09-04T08:45:50.956Z,78.90
2022-09-04T08:46:50.957Z,79.81
2022-09-04T08:47:50.880Z,80.17
2022-09-04T08:48:50.865Z,80.88
2022-09-04T08:49:50.881Z,79.77
2022-09-04T08:50:50.845Z,81.34
2022-09-04T08:51:50.828Z,78.83
2022-09-04T08:52:50.837Z,78.33
2022-09-04T08:53:50.837Z,77.59
2022-09-04T08:54:50.817Z,78.39
2022-09-04T08:55:50.769Z,79.39
2022-09-04T08:56:50.816Z,80.60
2022-09-04T08:57:50.785Z,79.55
2022-09-04T08:58:50.738Z,79.66
2022-09-04T08:59:50.747Z,78.15
2022-09-04T09:00:50.711Z,76.81
2022-09-04T09:01:50.737Z,77.61
2022-09-04T09:02:50.758Z,77.31
2022-09-04T09:03:50.698Z,77.72
2022-09-04T09:04:50.656Z,75.81
2022-09-04T09:05:50.635Z,77.67
2022-09-04T09:06:50.623Z,74.17
2022-09-04T09:07:50.613Z,75.97
2022-09-04T09:08:50.632Z,73.36
2022-09-04T09:09:50.594Z,74.07
2022-09-04T09:10:50.574Z,74.93
2022-09-04T09:11:50.581Z,74.33
2022-09-04T09:12:50.542Z,73.73
2022-09-04T09:13:50.536Z,74.60
2022-09-04T09:14:50.525Z,74.50
2022-09-04T09:15:50.532Z,74.50
2022-09-04T09:16:50.551Z,73.66
2022-09-04T09:17:50.469Z,75.16
2022-09-04T09:18:50.467Z,75.43
2022-09-04T09:19:50.443Z,74.53
2022-09-04T09:20:50.470Z,73.33
2022-09-04T09:21:50.430Z,73.79
2022-09-04T09:22:50.408Z,74.69
2022-09-04T09:23:50.398Z,73.16
2022-09-04T09:24:50.388Z,72.56
2022-09-04T09:25:50.394Z,71.86
2022-09-04T09:26:50.377Z,73.16
2022-09-04T09:27:50.342Z,73.52
2022-09-04T09:28:50.337Z,71.42
2022-09-04T09:29:50.333Z,72.52
2022-09-04T09:30:50.376Z,71.49
2022-09-04T09:31:50.298Z,71.09
2022-09-04T09:32:50.393Z,68.10
2022-09-04T09:33:50.271Z,71.95
2022-09-04T09:34:50.338Z,69.86
2022-09-04T09:35:50.240Z,68.76
2022-09-04T09:36:50.252Z,69.46
2022-09-04T09:37:50.216Z,68.56
2022-09-04T09:38:50.200Z,68.86
2022-09-04T09:39:50.210Z,68.53
2022-09-04T09:40:50.178Z,68.63
2022-09-04T09:41:50.234Z,66.83
2022-09-04T09:42:50.152Z,68.53
2022-09-04T09:43:50.139Z,67.03
2022-09-04T09:44:50.138Z,67.80
2022-09-04T09:45:50.144Z,67.40
2022-09-04T09:46:50.102Z,67.50
2022-09-04T09:47:50.107Z,65.08
2022-09-04T09:48:50.078Z,64.78
2022-09-04T09:49:50.052Z,66.97
2022-09-04T09:50:50.063Z,66.67
2022-09-04T09:51:50.033Z,65.94
2022-09-04T09:52:50.060Z,64.25
2022-09-04T09:53:50.002Z,65.34
2022-09-04T09:54:49.996Z,66.24
2022-09-04T09:55:49.969Z,66.34
2022-09-04T09:56:53.629Z,66.80
2022-09-04T09:57:49.969Z,67.50
2022-09-04T09:58:49.965Z,67.00
2022-09-04T09:59:49.931Z,65.78
2022-09-04T10:00:49.939Z,64.88
2022-09-04T10:01:49.891Z,63.85
2022-09-04T10:02:50.080Z,62.73
2022-09-04T10:03:49.870Z,62.53
2022-09-04T10:04:49.854Z,62.80
2022-09-04T10:05:49.847Z,61.80
2022-09-04T10:06:49.831Z,63.40
2022-09-04T10:07:49.838Z,64.19
2022-09-04T10:08:49.816Z,63.00
2022-09-04T10:09:49.788Z,61.71
2022-09-04T10:10:49.781Z,60.42
2022-09-04T10:11:49.788Z,61.31
2022-09-04T10:12:49.755Z,61.71
2022-09-04T10:13:49.740Z,61.80
2022-09-04T10:14:50.566Z,62.90
2022-09-04T10:15:49.752Z,62.37
2022-09-04T10:16:49.769Z,59.89
2022-09-04T10:17:49.696Z,59.59
2022-09-04T10:18:49.668Z,59.30
2022-09-04T10:19:49.664Z,60.78
2022-09-04T10:20:49.665Z,60.16
2022-09-04T10:21:49.635Z,60.36
2022-09-04T10:22:49.614Z,60.16
2022-09-04T10:23:49.602Z,60.13
2022-09-04T10:24:49.597Z,60.53
2022-09-04T10:25:49.606Z,61.52
2022-09-04T10:26:49.581Z,59.61
2022-09-04T10:27:49.551Z,57.92
2022-09-04T10:28:49.530Z,58.32
2022-09-04T10:29:49.535Z,58.78
2022-09-04T10:30:49.556Z,58.78
2022-09-04T10:31:49.527Z,57.79
2022-09-04T10:32:49.489Z,57.97
2022-09-04T10:33:49.491Z,57.46
2022-09-04T10:34:49.496Z,58.26
2022-09-04T10:35:49.451Z,60.31
2022-09-04T10:36:49.430Z,56.92
2022-09-04T10:37:49.426Z,57.81
2022-09-04T10:38:49.407Z,58.47
2022-09-04T10:39:49.452Z,56.30
2022-09-04T10:40:51.561Z,57.39
2022-09-04T10:41:49.367Z,54.32
2022-09-04T10:42:49.353Z,54.52
2022-09-04T10:43:49.352Z,56.67
2022-09-04T10:44:49.358Z,55.47
2022-09-04T10:45:49.408Z,54.39
2022-09-04T10:46:49.317Z,54.79
2022-09-04T10:47:49.287Z,55.05
2022-09-04T10:48:49.276Z,55.15
2022-09-04T10:49:49.298Z,54.06
2022-09-04T10:50:49.247Z,53.85
2022-09-04T10:51:49.263Z,54.63
2022-09-04T10:52:49.231Z,53.33
2022-09-04T10:53:49.281Z,53.03
2022-09-04T10:54:49.193Z,55.20
2022-09-04T10:55:49.217Z,54.19
2022-09-04T10:56:49.177Z,54.28
2022-09-04T10:57:49.160Z,51.89
2022-09-04T10:58:49.182Z,52.19
2022-09-04T10:59:49.147Z,51.13
2022-09-04T11:00:49.185Z,52.11
2022-09-04T11:01:49.112Z,53.27
2022-09-04T11:02:49.091Z,53.08
2022-09-04T11:03:49.110Z,52.26
2022-09-04T11:04:49.076Z,51.57
2022-09-04T11:05:49.081Z,50.66
2022-09-04T11:06:49.045Z,51.45
2022-09-04T11:07:49.029Z,50.56
2022-09-04T11:08:49.014Z,52.40
2022-09-04T11:09:49.014Z,50.14
2022-09-04T11:10:49.002Z,50.14
2022-09-04T11:11:48.990Z,49.73
2022-09-04T11:12:48.967Z,49.04
2022-09-04T11:13:51.463Z,50.31
2022-09-04T11:14:48.947Z,49.33
2022-09-04T11:15:48.955Z,50.81
2022-09-04T11:16:48.977Z,50.42
2022-09-04T11:17:48.899Z,50.21
2022-09-04T11:18:48.920Z,50.90
2022-09-04T11:19:48.883Z,49.55
2022-09-04T11:20:48.892Z,49.77
2022-09-04T11:21:48.858Z,50.09
2022-09-04T11:22:48.861Z,51.00
2022-09-04T11:23:48.839Z,51.10
2022-09-04T11:24:48.812Z,52.61
2022-09-04T11:25:48.806Z,50.83
2022-09-04T11:26:48.864Z,51.35
2022-09-04T11:27:48.803Z,51.28
2022-09-04T11:28:48.758Z,51.50
2022-09-04T11:29:48.760Z,52.19
2022-09-04T11:30:48.737Z,52.86
2022-09-04T11:31:48.832Z,53.12
2022-09-04T11:32:48.712Z,52.41
2022-09-04T11:33:48.705Z,51.20
2022-09-04T11:34:48.691Z,51.00
2022-09-04T11:35:48.674Z,51.07
2022-09-04T11:36:48.743Z,51.84
2022-09-04T11:37:48.647Z,50.56
2022-09-04T11:38:48.629Z,49.45
2022-09-04T11:39:48.725Z,50.14
2022-09-04T11:40:48.612Z,51.00
2022-09-04T11:41:48.621Z,49.43
2022-09-04T11:42:48.580Z,50.42
2022-09-04T11:43:48.636Z,49.99
2022-09-04T11:44:48.553Z,50.46
2022-09-04T11:45:48.616Z,49.97
2022-09-04T11:46:48.625Z,51.25
2022-09-04T11:47:48.550Z,48.49
2022-09-04T11:48:48.515Z,47.78
2022-09-04T11:49:48.498Z,48.18
2022-09-04T11:50:48.488Z,48.18
2022-09-04T11:51:48.476Z,49.46
2022-09-04T11:52:48.501Z,47.17
2022-09-04T11:53:48.448Z,47.27
2022-09-04T11:54:48.440Z,48.45
2022-09-04T11:55:52.651Z,47.17
2022-09-04T11:56:48.412Z,48.08
2022-09-04T11:57:48.407Z,47.19
2022-09-04T11:58:48.403Z,45.23
2022-09-04T11:59:48.380Z,46.41
2022-09-04T12:00:48.379Z,45.35
2022-09-04T12:01:48.488Z,46.50
2022-09-04T12:02:48.340Z,47.00
2022-09-04T12:03:48.430Z,46.88
2022-09-04T12:04:48.315Z,47.86
2022-09-04T12:05:48.326Z,47.27
2022-09-04T12:06:48.286Z,47.36
2022-09-04T12:07:48.267Z,47.07
2022-09-04T12:08:48.286Z,44.73
2022-09-04T12:09:48.248Z,44.78
2022-09-04T12:10:48.241Z,46.15
2022-09-04T12:11:48.216Z,44.90
2022-09-04T12:12:48.221Z,47.83
2022-09-04T12:13:48.207Z,48.30
2022-09-04T12:14:48.212Z,47.39
2022-09-04T12:15:48.171Z,47.22
2022-09-04T12:16:48.213Z,45.96
2022-09-04T12:17:48.228Z,46.15
2022-09-04T12:18:48.216Z,46.53
2022-09-04T12:19:48.120Z,47.61
2022-09-04T12:20:48.097Z,48.10
2022-09-04T12:21:48.094Z,46.72
2022-09-04T12:22:48.103Z,48.89
2022-09-04T12:23:48.067Z,48.99
2022-09-04T12:24:48.060Z,48.49
2022-09-04T12:25:48.042Z,46.53
2022-09-04T12:26:51.301Z,46.80
2022-09-04T12:27:48.018Z,45.62
2022-09-04T12:28:48.054Z,47.58
2022-09-04T12:29:48.014Z,46.19
2022-09-04T12:30:48.006Z,47.36
2022-09-04T12:31:51.457Z,47.07
2022-09-04T12:32:47.951Z,47.86
2022-09-04T12:33:47.939Z,46.38
2022-09-04T12:34:47.934Z,45.20
2022-09-04T12:35:47.930Z,47.07
2022-09-04T12:36:47.924Z,45.40
2022-09-04T12:37:47.897Z,46.38
2022-09-04T12:38:47.926Z,45.79
2022-09-04T12:39:47.907Z,46.58
2022-09-04T12:40:47.858Z,46.78
2022-09-04T12:41:49.854Z,46.58
2022-09-04T12:42:47.850Z,46.46
2022-09-04T12:43:47.833Z,45.38
2022-09-04T12:44:47.803Z,45.77
2022-09-04T12:45:47.900Z,45.18
2022-09-04T12:46:47.778Z,45.48
2022-09-04T12:47:47.804Z,45.09
2022-09-04T12:48:47.793Z,45.99
2022-09-04T12:49:47.741Z,44.32
2022-09-04T12:50:47.731Z,45.23
2022-09-04T12:51:47.740Z,45.84
2022-09-04T12:52:47.709Z,46.13